createdAt,value
2019-05-20T00:00:55.097Z,99.99
2019-05-20T00:01:55.031Z,99.99
2019-05-20T00:02:54.943Z,99.99
2019-05-20T00:03:54.831Z,99.99
2019-05-20T00:04:54.761Z,99.99
2019-05-20T00:05:54.690Z,99.99
2019-05-20T00:06:54.579Z,99.99
2019-05-20T00:07:54.508Z,99.99
2019-05-20T00:08:54.407Z,99.99
2019-05-20T00:09:54.333Z,99.99
2019-05-20T00:10:54.226Z,99.99
2019-05-20T00:11:54.140Z,99.99
2019-05-20T00:12:54.083Z,99.99
2019-05-20T00:13:54.105Z,99.99
2019-05-20T00:14:53.892Z,99.99
2019-05-20T00:15:53.790Z,99.99
2019-05-20T00:16:53.756Z,99.99
2019-05-20T00:17:53.623Z,99.99
2019-05-20T00:18:53.549Z,99.99
2019-05-20T00:19:54.374Z,99.99
2019-05-20T00:20:53.386Z,99.99
2019-05-20T00:21:53.290Z,99.99
2019-05-20T00:22:53.201Z,99.99
2019-05-20T00:23:53.134Z,99.99
2019-05-20T00:24:53.016Z,99.99
2019-05-20T00:25:52.918Z,99.99
2019-05-20T00:26:52.846Z,99.99
2019-05-20T00:27:52.740Z,99.99
2019-05-20T00:28:52.671Z,99.99
2019-05-20T00:29:52.579Z,99.99
2019-05-20T00:30:52.495Z,99.99
2019-05-20T00:31:52.481Z,99.99
2019-05-20T00:32:52.314Z,99.99
2019-05-20T00:33:52.224Z,99.99
2019-05-20T00:34:52.131Z,99.99
2019-05-20T00:35:52.077Z,99.99
2019-05-20T00:36:51.974Z,99.99
2019-05-20T00:37:51.871Z,99.99
2019-05-20T00:38:51.885Z,99.99
2019-05-20T00:39:51.706Z,99.99
2019-05-20T00:40:51.645Z,99.99
2019-05-20T00:41:51.533Z,99.99
2019-05-20T00:42:51.453Z,99.99
2019-05-20T00:43:51.399Z,99.99
2019-05-20T00:44:51.261Z,99.99
2019-05-20T00:45:51.191Z,99.99
2019-05-20T00:46:51.093Z,99.99
2019-05-20T00:47:51.004Z,99.99
2019-05-20T00:48:50.911Z,99.99
2019-05-20T00:49:50.834Z,99.99
2019-05-20T00:50:50.739Z,99.99
2019-05-20T00:51:50.653Z,99.99
2019-05-20T00:52:50.577Z,99.99
2019-05-20T00:53:50.491Z,99.99
2019-05-20T00:54:51.385Z,99.99
2019-05-20T00:55:50.325Z,99.99
2019-05-20T00:56:50.996Z,99.99
2019-05-20T00:57:50.141Z,99.99
2019-05-20T00:58:50.037Z,99.99
2019-05-20T00:59:49.968Z,99.99
2019-05-20T01:00:49.969Z,99.99
2019-05-20T01:01:49.804Z,99.99
2019-05-20T01:02:56.763Z,99.99
2019-05-20T01:03:49.598Z,99.99
2019-05-20T01:04:49.533Z,99.99
2019-05-20T01:05:49.437Z,99.99
2019-05-20T01:06:49.366Z,99.99
2019-05-20T01:07:49.292Z,99.99
2019-05-20T01:08:49.166Z,99.99
2019-05-20T01:09:49.087Z,99.99
2019-05-20T01:10:48.986Z,99.99
2019-05-20T01:11:48.905Z,99.99
2019-05-20T01:12:48.844Z,99.99
2019-05-20T01:13:48.730Z,99.99
2019-05-20T01:14:48.648Z,99.99
2019-05-20T01:15:48.594Z,99.99
2019-05-20T01:16:48.488Z,99.99
2019-05-20T01:17:48.384Z,99.99
2019-05-20T01:18:48.364Z,99.99
2019-05-20T01:19:48.200Z,99.99
2019-05-20T01:20:48.134Z,99.99
2019-05-20T01:21:48.037Z,99.99
2019-05-20T01:22:47.954Z,99.99
2019-05-20T01:23:47.872Z,99.99
2019-05-20T01:24:47.796Z,99.99
2019-05-20T01:25:47.686Z,99.99
2019-05-20T01:26:47.594Z,99.99
2019-05-20T01:27:47.503Z,99.99
2019-05-20T01:28:47.430Z,99.99
2019-05-20T01:29:47.354Z,99.99
2019-05-20T01:30:47.241Z,99.99
2019-05-20T01:31:47.157Z,99.99
2019-05-20T01:32:47.087Z,99.99
2019-05-20T01:33:46.994Z,99.99
2019-05-20T01:34:46.933Z,99.99
2019-05-20T01:35:46.822Z,99.99
2019-05-20T01:36:46.723Z,99.99
2019-05-20T01:37:46.636Z,99.99
2019-05-20T01:38:46.565Z,99.99
2019-05-20T01:39:46.463Z,99.99
2019-05-20T01:40:46.378Z,99.99
2019-05-20T01:41:46.298Z,99.99
2019-05-20T01:42:46.202Z,99.99
2019-05-20T01:43:46.132Z,99.99
2019-05-20T01:44:46.014Z,99.99
2019-05-20T01:45:45.963Z,99.99
2019-05-20T01:46:45.838Z,99.99
2019-05-20T01:47:45.758Z,99.99
2019-05-20T01:48:45.683Z,99.99
2019-05-20T01:49:45.574Z,99.99
2019-05-20T01:50:45.525Z,99.99
2019-05-20T01:51:45.431Z,99.99
2019-05-20T01:52:45.324Z,99.99
2019-05-20T01:53:45.235Z,99.99
2019-05-20T01:54:45.153Z,99.99
2019-05-20T01:55:45.062Z,99.99
2019-05-20T01:56:44.969Z,99.99
2019-05-20T01:57:44.885Z,99.99
2019-05-20T01:58:44.791Z,99.99
2019-05-20T01:59:44.724Z,99.99
2019-05-20T02:00:44.637Z,99.99
2019-05-20T02:01:44.545Z,99.99
2019-05-20T02:02:44.459Z,99.99
2019-05-20T02:03:44.357Z,99.99
2019-05-20T02:04:44.293Z,99.99
2019-05-20T02:05:44.182Z,99.99
2019-05-20T02:06:44.092Z,99.99
2019-05-20T02:07:44.029Z,99.99
2019-05-20T02:08:43.932Z,99.99
2019-05-20T02:09:43.840Z,99.99
2019-05-20T02:10:43.743Z,99.99
2019-05-20T02:11:43.675Z,99.99
2019-05-20T02:12:43.593Z,99.99
2019-05-20T02:13:43.483Z,99.99
2019-05-20T02:14:43.393Z,99.99
2019-05-20T02:15:43.295Z,99.99
2019-05-20T02:16:43.215Z,99.99
2019-05-20T02:17:43.152Z,99.99
2019-05-20T02:18:43.036Z,99.99
2019-05-20T02:19:42.976Z,99.99
2019-05-20T02:20:42.877Z,99.99
2019-05-20T02:21:42.783Z,99.99
2019-05-20T02:22:42.705Z,99.99
2019-05-20T02:23:42.600Z,99.99
2019-05-20T02:24:42.518Z,99.99
2019-05-20T02:25:46.564Z,99.99
2019-05-20T02:26:42.360Z,99.99
2019-05-20T02:27:42.262Z,99.99
2019-05-20T02:29:42.122Z,99.99
2019-05-20T02:30:41.990Z,99.99
2019-05-20T02:31:41.902Z,99.99
2019-05-20T02:32:41.839Z,99.99
2019-05-20T02:33:51.664Z,99.99
2019-05-20T02:34:41.678Z,99.99
2019-05-20T02:35:42.583Z,99.99
2019-05-20T02:36:41.475Z,99.99
2019-05-20T02:37:41.399Z,99.99
2019-05-20T02:38:41.311Z,99.99
2019-05-20T02:39:41.222Z,99.99
2019-05-20T02:40:41.111Z,99.99
2019-05-20T02:41:42.036Z,99.99
2019-05-20T02:42:40.959Z,99.99
2019-05-20T02:43:40.859Z,99.99
2019-05-20T02:44:40.755Z,99.99
2019-05-20T02:45:40.677Z,99.99
2019-05-20T02:46:40.585Z,99.99
2019-05-20T02:47:41.525Z,99.99
2019-05-20T02:48:40.470Z,99.99
2019-05-20T02:49:40.339Z,99.99
2019-05-20T02:50:40.251Z,99.99
2019-05-20T02:51:40.135Z,99.99
2019-05-20T02:52:40.072Z,99.99
2019-05-20T02:53:40.989Z,99.99
2019-05-20T02:54:39.915Z,99.99
2019-05-20T02:55:39.785Z,99.99
2019-05-20T02:56:39.732Z,99.99
2019-05-20T02:57:39.613Z,99.99
2019-05-20T02:58:39.523Z,99.99
2019-05-20T02:59:40.447Z,99.99
2019-05-20T03:00:39.376Z,99.99
2019-05-20T03:01:39.270Z,99.99
2019-05-20T03:02:39.187Z,99.99
2019-05-20T03:03:39.103Z,99.99
2019-05-20T03:04:39.012Z,99.99
2019-05-20T03:05:39.924Z,99.99
2019-05-20T03:06:38.818Z,99.99
2019-05-20T03:07:38.763Z,99.99
2019-05-20T03:08:38.652Z,99.99
2019-05-20T03:09:38.560Z,99.99
2019-05-20T03:10:38.472Z,99.99
2019-05-20T03:11:39.393Z,99.99
2019-05-20T03:12:38.296Z,99.99
2019-05-20T03:13:38.208Z,99.99
2019-05-20T03:14:38.127Z,99.99
2019-05-20T03:15:38.022Z,99.99
2019-05-20T03:16:37.946Z,99.99
2019-05-20T03:17:38.867Z,99.99
2019-05-20T03:18:37.775Z,99.99
2019-05-20T03:19:37.725Z,99.99
2019-05-20T03:20:37.610Z,99.99
2019-05-20T03:21:37.516Z,99.99
2019-05-20T03:22:37.427Z,99.99
2019-05-20T03:23:38.397Z,99.99
2019-05-20T03:24:37.234Z,99.99
2019-05-20T03:25:37.169Z,99.99
2019-05-20T03:26:37.067Z,99.99
2019-05-20T03:27:36.994Z,99.99
2019-05-20T03:28:36.875Z,99.99
2019-05-20T03:29:37.813Z,99.99
2019-05-20T03:30:36.747Z,99.99
2019-05-20T03:31:36.660Z,99.99
2019-05-20T03:32:36.583Z,99.99
2019-05-20T03:33:36.473Z,99.99
2019-05-20T03:34:48.042Z,99.99
2019-05-20T03:35:37.289Z,99.99
2019-05-20T03:36:36.206Z,99.99
2019-05-20T03:37:36.114Z,99.99
2019-05-20T03:38:36.004Z,99.99
2019-05-20T03:39:35.928Z,99.99
2019-05-20T03:40:35.830Z,99.99
2019-05-20T03:41:36.912Z,99.99
2019-05-20T03:42:35.665Z,99.99
2019-05-20T03:43:35.570Z,99.99
2019-05-20T03:44:35.495Z,99.99
2019-05-20T03:45:35.416Z,99.99
2019-05-20T03:46:35.316Z,99.99
2019-05-20T03:47:36.235Z,99.99
2019-05-20T03:48:35.136Z,99.99
2019-05-20T03:49:35.043Z,99.99
2019-05-20T03:50:34.971Z,99.99
2019-05-20T03:51:34.867Z,99.99
2019-05-20T03:52:34.789Z,99.99
2019-05-20T03:53:35.699Z,99.99
2019-05-20T03:54:34.597Z,99.99
2019-05-20T03:55:34.522Z,99.99
2019-05-20T03:56:34.443Z,99.99
2019-05-20T03:57:34.391Z,99.99
2019-05-20T03:58:34.288Z,99.99
2019-05-20T03:59:35.177Z,99.99
2019-05-20T04:00:34.080Z,99.99
2019-05-20T04:01:33.992Z,99.99
2019-05-20T04:02:33.905Z,99.99
2019-05-20T04:03:33.817Z,99.99
2019-05-20T04:04:33.717Z,99.99
2019-05-20T04:05:34.638Z,99.99
2019-05-20T04:06:33.554Z,99.99
2019-05-20T04:07:33.456Z,99.99
2019-05-20T04:08:33.395Z,99.99
2019-05-20T04:09:33.305Z,99.99
2019-05-20T04:10:33.219Z,99.99
2019-05-20T04:11:34.140Z,99.99
2019-05-20T04:12:33.031Z,99.99
2019-05-20T04:13:34.812Z,99.99
2019-05-20T04:14:32.841Z,99.99
2019-05-20T04:15:32.758Z,99.99
2019-05-20T04:16:32.668Z,99.99
2019-05-20T04:17:33.614Z,99.99
2019-05-20T04:18:32.508Z,99.99
2019-05-20T04:19:32.406Z,99.99
2019-05-20T04:20:32.326Z,99.99
2019-05-20T04:21:32.247Z,99.99
2019-05-20T04:22:32.170Z,99.99
2019-05-20T04:23:33.082Z,99.99
2019-05-20T04:24:31.968Z,99.99
2019-05-20T04:25:31.896Z,99.99
2019-05-20T04:26:31.798Z,99.99
2019-05-20T04:27:31.704Z,99.99
2019-05-20T04:28:31.636Z,99.99
2019-05-20T04:29:32.543Z,99.99
2019-05-20T04:30:31.456Z,99.99
2019-05-20T04:31:31.361Z,99.99
2019-05-20T04:32:31.268Z,99.99
2019-05-20T04:33:31.195Z,99.99
2019-05-20T04:34:31.100Z,99.99
2019-05-20T04:35:32.013Z,99.99
2019-05-20T04:36:30.925Z,99.99
2019-05-20T04:37:30.857Z,99.99
2019-05-20T04:38:30.766Z,99.99
2019-05-20T04:39:30.657Z,99.99
2019-05-20T04:40:30.569Z,99.99
2019-05-20T04:41:31.512Z,99.99
2019-05-20T04:42:30.408Z,99.99
2019-05-20T04:43:30.313Z,99.99
2019-05-20T04:44:30.218Z,99.99
2019-05-20T04:45:30.147Z,99.99
2019-05-20T04:46:30.062Z,99.99
2019-05-20T04:47:30.972Z,99.99
2019-05-20T04:48:29.868Z,99.99
2019-05-20T04:49:29.792Z,99.99
2019-05-20T04:50:29.719Z,99.99
2019-05-20T04:51:29.614Z,99.99
2019-05-20T04:52:29.522Z,99.99
2019-05-20T04:53:30.444Z,99.99
2019-05-20T04:54:29.437Z,99.99
2019-05-20T04:55:29.291Z,99.99
2019-05-20T04:56:29.559Z,99.99
2019-05-20T04:57:29.115Z,99.99
2019-05-20T04:58:29.087Z,99.99
2019-05-20T04:59:29.931Z,99.99
2019-05-20T05:00:28.826Z,99.99
2019-05-20T05:01:28.741Z,99.99
2019-05-20T05:02:28.680Z,99.99
2019-05-20T05:03:28.589Z,99.99
2019-05-20T05:04:28.486Z,99.99
2019-05-20T05:05:37.655Z,99.99
2019-05-20T05:06:28.305Z,99.99
2019-05-20T05:07:28.223Z,99.99
2019-05-20T05:08:28.136Z,99.99
2019-05-20T05:09:28.047Z,99.99
2019-05-20T05:10:27.974Z,99.99
2019-05-20T05:11:28.884Z,99.99
2019-05-20T05:12:27.780Z,99.99
2019-05-20T05:13:27.717Z,99.99
2019-05-20T05:14:27.610Z,99.99
2019-05-20T05:15:27.520Z,99.99
2019-05-20T05:16:27.439Z,99.99
2019-05-20T05:17:28.371Z,99.99
2019-05-20T05:18:27.281Z,99.99
2019-05-20T05:19:27.195Z,99.99
2019-05-20T05:20:27.104Z,99.99
2019-05-20T05:21:27.010Z,99.99
2019-05-20T05:22:26.936Z,99.99
2019-05-20T05:23:27.849Z,99.99
2019-05-20T05:24:26.759Z,99.99
2019-05-20T05:25:26.658Z,99.99
2019-05-20T05:26:26.579Z,99.99
2019-05-20T05:27:26.498Z,99.99
2019-05-20T05:28:26.411Z,99.99
2019-05-20T05:29:27.331Z,99.99
2019-05-20T05:30:26.227Z,99.99
2019-05-20T05:31:26.138Z,99.99
2019-05-20T05:32:26.055Z,99.99
2019-05-20T05:33:25.975Z,99.99
2019-05-20T05:34:25.885Z,99.99
2019-05-20T05:35:26.818Z,99.99
2019-05-20T05:36:25.711Z,99.99
2019-05-20T05:37:25.629Z,99.99
2019-05-20T05:38:25.547Z,99.99
2019-05-20T05:39:25.465Z,99.99
2019-05-20T05:40:25.359Z,99.99
2019-05-20T05:41:26.286Z,99.99
2019-05-20T05:42:25.213Z,99.99
2019-05-20T05:43:25.121Z,99.99
2019-05-20T05:44:25.025Z,99.99
2019-05-20T05:45:28.607Z,99.99
2019-05-20T05:46:24.855Z,99.99
2019-05-20T05:47:25.793Z,99.99
2019-05-20T05:48:24.740Z,99.99
2019-05-20T05:49:24.599Z,99.99
2019-05-20T05:50:24.517Z,99.99
2019-05-20T05:51:24.426Z,99.99
2019-05-20T05:52:24.329Z,99.99
2019-05-20T05:53:25.255Z,99.99
2019-05-20T05:54:24.157Z,99.99
2019-05-20T05:55:24.080Z,99.99
2019-05-20T05:56:24.003Z,99.99
2019-05-20T05:57:23.893Z,99.99
2019-05-20T05:58:23.814Z,99.99
2019-05-20T05:59:24.751Z,99.99
2019-05-20T06:00:23.736Z,99.99
2019-05-20T06:01:23.557Z,99.99
2019-05-20T06:02:23.465Z,99.99
2019-05-20T06:03:23.384Z,99.99
2019-05-20T06:04:23.299Z,99.99
2019-05-20T06:05:24.222Z,99.99
2019-05-20T06:06:23.124Z,99.99
2019-05-20T06:07:23.032Z,99.99
2019-05-20T06:08:22.981Z,99.99
2019-05-20T06:09:22.869Z,99.99
2019-05-20T06:10:22.770Z,99.99
2019-05-20T06:11:23.693Z,99.99
2019-05-20T06:12:22.601Z,99.99
2019-05-20T06:13:22.536Z,99.99
2019-05-20T06:14:22.442Z,99.99
2019-05-20T06:15:22.343Z,99.99
2019-05-20T06:16:36.008Z,99.99
2019-05-20T06:17:23.189Z,99.99
2019-05-20T06:18:22.101Z,99.99
2019-05-20T06:19:21.996Z,99.99
2019-05-20T06:20:21.912Z,99.99
2019-05-20T06:21:21.823Z,99.99
2019-05-20T06:22:21.743Z,99.99
2019-05-20T06:23:22.658Z,99.99
2019-05-20T06:24:21.582Z,99.99
2019-05-20T06:25:21.483Z,99.99
2019-05-20T06:26:21.404Z,99.99
2019-05-20T06:27:21.320Z,99.99
2019-05-20T06:28:21.239Z,99.99
2019-05-20T06:29:22.148Z,99.99
2019-05-20T06:30:21.071Z,99.99
2019-05-20T06:31:20.974Z,99.99
2019-05-20T06:32:20.890Z,99.99
2019-05-20T06:33:20.794Z,99.99
2019-05-20T06:34:20.712Z,99.99
2019-05-20T06:35:21.624Z,99.99
2019-05-20T06:36:26.913Z,99.99
2019-05-20T06:37:20.448Z,99.99
2019-05-20T06:38:20.371Z,99.99
2019-05-20T06:39:20.286Z,99.99
2019-05-20T06:40:20.180Z,99.99
2019-05-20T06:41:21.116Z,99.99
2019-05-20T06:42:20.095Z,99.99
2019-05-20T06:43:19.927Z,99.99
2019-05-20T06:44:19.848Z,99.99
2019-05-20T06:45:19.760Z,99.99
2019-05-20T06:46:19.693Z,99.99
2019-05-20T06:47:20.610Z,99.99
2019-05-20T06:48:19.506Z,99.99
2019-05-20T06:49:19.448Z,99.99
2019-05-20T06:50:19.341Z,99.99
2019-05-20T06:51:19.249Z,99.99
2019-05-20T06:52:34.923Z,99.99
2019-05-20T06:53:20.137Z,99.99
2019-05-20T06:54:18.988Z,99.99
2019-05-20T06:55:18.908Z,99.99
2019-05-20T06:56:18.838Z,99.99
2019-05-20T06:57:18.734Z,99.99
2019-05-20T06:58:18.645Z,99.99
2019-05-20T06:59:19.581Z,99.99
2019-05-20T07:00:18.478Z,99.99
2019-05-20T07:01:18.387Z,99.99
2019-05-20T07:02:18.305Z,99.99
2019-05-20T07:03:18.245Z,99.99
2019-05-20T07:04:18.149Z,99.99
2019-05-20T07:05:19.062Z,99.99
2019-05-20T07:06:17.953Z,99.99
2019-05-20T07:07:21.311Z,99.99
2019-05-20T07:08:17.826Z,99.99
2019-05-20T07:09:17.703Z,99.99
2019-05-20T07:10:17.639Z,99.99
2019-05-20T07:11:18.543Z,99.99
2019-05-20T07:12:17.463Z,99.99
2019-05-20T07:13:17.373Z,99.99
2019-05-20T07:14:17.300Z,99.99
2019-05-20T07:15:17.197Z,99.99
2019-05-20T07:16:17.140Z,99.99
2019-05-20T07:17:18.059Z,99.99
2019-05-20T07:18:16.941Z,99.99
2019-05-20T07:19:16.873Z,99.99
2019-05-20T07:20:16.785Z,99.99
2019-05-20T07:21:16.780Z,99.99
2019-05-20T07:22:16.591Z,99.99
2019-05-20T07:23:17.525Z,99.99
2019-05-20T07:24:16.463Z,99.99
2019-05-20T07:25:16.373Z,99.99
2019-05-20T07:26:16.256Z,99.99
2019-05-20T07:27:16.165Z,99.99
2019-05-20T07:28:16.091Z,99.99
2019-05-20T07:29:17.013Z,99.99
2019-05-20T07:30:15.942Z,99.99
2019-05-20T07:31:15.855Z,99.99
2019-05-20T07:32:15.754Z,99.99
2019-05-20T07:33:15.679Z,99.99
2019-05-20T07:34:15.580Z,99.99
2019-05-20T07:35:29.337Z,99.99
2019-05-20T07:36:15.417Z,99.99
2019-05-20T07:37:15.318Z,99.99
2019-05-20T07:38:15.244Z,99.99
2019-05-20T07:39:15.169Z,99.68
2019-05-20T07:40:15.072Z,99.20
2019-05-20T07:41:15.997Z,99.10
2019-05-20T07:42:14.932Z,98.86
2019-05-20T07:43:14.805Z,98.58
2019-05-20T07:44:14.762Z,98.68
2019-05-20T07:45:14.638Z,98.48
2019-05-20T07:46:14.555Z,98.10
2019-05-20T07:47:15.481Z,98.10
2019-05-20T07:48:14.398Z,98.19
2019-05-20T07:49:14.323Z,98.39
2019-05-20T07:50:14.222Z,98.34
2019-05-20T07:51:14.143Z,98.44
2019-05-20T07:52:14.067Z,98.34
2019-05-20T07:53:14.991Z,97.38
2019-05-20T07:54:13.883Z,97.19
2019-05-20T07:55:13.821Z,97.96
2019-05-20T07:56:13.704Z,98.34
2019-05-20T07:57:13.682Z,97.57
2019-05-20T07:58:13.568Z,97.28
2019-05-20T07:59:14.464Z,97.67
2019-05-20T08:00:13.404Z,97.57
2019-05-20T08:01:13.307Z,97.33
2019-05-20T08:02:13.208Z,97.04
2019-05-20T08:03:13.134Z,96.94
2019-05-20T08:04:13.033Z,96.94
2019-05-20T08:05:13.960Z,95.98
2019-05-20T08:06:12.871Z,95.98
2019-05-20T08:07:27.483Z,95.94
2019-05-20T08:08:12.745Z,95.36
2019-05-20T08:09:12.644Z,95.65
2019-05-20T08:10:12.536Z,95.12
2019-05-20T08:11:13.550Z,95.45
2019-05-20T08:12:12.410Z,95.55
2019-05-20T08:13:12.291Z,96.22
2019-05-20T08:14:12.202Z,95.02
2019-05-20T08:15:12.131Z,95.40
2019-05-20T08:16:12.042Z,94.92
2019-05-20T08:17:12.963Z,95.40
2019-05-20T08:18:11.876Z,95.40
2019-05-20T08:19:11.790Z,95.45
2019-05-20T08:20:11.690Z,95.65
2019-05-20T08:21:11.628Z,94.68
2019-05-20T08:22:11.534Z,94.49
2019-05-20T08:23:12.482Z,94.40
2019-05-20T08:24:11.356Z,93.91
2019-05-20T08:25:11.283Z,93.53
2019-05-20T08:26:11.206Z,94.49
2019-05-20T08:27:11.140Z,94.10
2019-05-20T08:28:11.044Z,94.45
2019-05-20T08:29:11.955Z,94.83
2019-05-20T08:30:14.019Z,95.60
2019-05-20T08:31:10.801Z,95.21
2019-05-20T08:32:10.696Z,95.50
2019-05-20T08:33:10.635Z,95.02
2019-05-20T08:34:10.525Z,95.36
2019-05-20T08:35:11.455Z,95.36
2019-05-20T08:36:10.372Z,94.87
2019-05-20T08:37:10.277Z,95.02
2019-05-20T08:38:10.225Z,93.09
2019-05-20T08:39:10.115Z,93.38
2019-05-20T08:40:10.032Z,92.80
2019-05-20T08:41:10.951Z,92.18
2019-05-20T08:42:09.894Z,91.89
2019-05-20T08:43:09.965Z,92.56
2019-05-20T08:44:09.691Z,91.50
2019-05-20T08:45:09.611Z,91.69
2019-05-20T08:46:09.550Z,92.22
2019-05-20T08:47:10.448Z,92.22
2019-05-20T08:48:09.385Z,93.00
2019-05-20T08:49:11.162Z,92.90
2019-05-20T08:50:14.024Z,93.29
2019-05-20T08:51:09.107Z,92.66
2019-05-20T08:52:09.031Z,92.56
2019-05-20T08:53:09.957Z,92.56
2019-05-20T08:54:08.858Z,91.50
2019-05-20T08:55:08.789Z,91.21
2019-05-20T08:56:08.796Z,91.69
2019-05-20T08:57:08.613Z,91.55
2019-05-20T08:58:08.554Z,91.93
2019-05-20T08:59:09.455Z,91.74
2019-05-20T09:00:08.354Z,90.00
2019-05-20T09:01:09.799Z,90.73
2019-05-20T09:02:08.195Z,90.06
2019-05-20T09:03:08.112Z,90.97
2019-05-20T09:04:08.023Z,90.58
2019-05-20T09:05:08.956Z,90.68
2019-05-20T09:06:07.860Z,90.16
2019-05-20T09:07:07.771Z,91.55
2019-05-20T09:08:07.727Z,91.55
2019-05-20T09:09:07.627Z,90.97
2019-05-20T09:10:07.543Z,90.58
2019-05-20T09:11:08.466Z,90.05
2019-05-20T09:12:07.370Z,90.34
2019-05-20T09:13:07.284Z,90.24
2019-05-20T09:14:07.271Z,89.33
2019-05-20T09:15:07.164Z,88.56
2019-05-20T09:16:07.033Z,89.81
2019-05-20T09:17:07.970Z,90.30
2019-05-20T09:18:06.866Z,90.39
2019-05-20T09:19:06.798Z,89.81
2019-05-20T09:20:06.721Z,89.91
2019-05-20T09:21:06.667Z,89.57
2019-05-20T09:22:06.544Z,90.05
2019-05-20T09:23:07.471Z,89.37
2019-05-20T09:24:06.375Z,89.37
2019-05-20T09:25:06.349Z,89.81
2019-05-20T09:26:06.202Z,88.17
2019-05-20T09:27:06.171Z,88.26
2019-05-20T09:28:06.137Z,88.36
2019-05-20T09:29:11.047Z,89.03
2019-05-20T09:30:05.881Z,88.17
2019-05-20T09:31:05.787Z,87.68
2019-05-20T09:32:05.733Z,87.40
2019-05-20T09:33:05.638Z,88.17
2019-05-20T09:34:05.560Z,88.75
2019-05-20T09:35:06.478Z,89.32
2019-05-20T09:36:05.374Z,88.55
2019-05-20T09:37:05.307Z,88.17
2019-05-20T09:38:18.255Z,87.59
2019-05-20T09:39:05.133Z,87.35
2019-05-20T09:40:05.070Z,88.60
2019-05-20T09:41:05.980Z,88.75
2019-05-20T09:42:04.906Z,88.93
2019-05-20T09:43:04.825Z,89.75
2019-05-20T09:44:04.724Z,88.98
2019-05-20T09:45:04.748Z,88.36
2019-05-20T09:46:07.990Z,88.93
2019-05-20T09:47:05.490Z,88.45
2019-05-20T09:48:04.458Z,87.97
2019-05-20T09:49:04.312Z,88.11
2019-05-20T09:50:04.251Z,88.75
2019-05-20T09:51:04.171Z,88.84
2019-05-20T09:52:04.068Z,89.42
2019-05-20T09:53:07.020Z,89.13
2019-05-20T09:54:03.936Z,88.84
2019-05-20T09:55:03.815Z,89.13
2019-05-20T09:56:03.737Z,89.27
2019-05-20T09:57:03.645Z,89.27
2019-05-20T09:58:03.580Z,89.27
2019-05-20T09:59:04.502Z,89.79
2019-05-20T10:00:03.426Z,87.82
2019-05-20T10:01:03.329Z,87.92
2019-05-20T10:02:03.269Z,88.02
2019-05-20T10:03:03.377Z,88.98
2019-05-20T10:04:03.092Z,88.54
2019-05-20T10:05:04.145Z,87.77
2019-05-20T10:06:03.051Z,87.33
2019-05-20T10:07:02.893Z,86.56
2019-05-20T10:08:02.778Z,85.35
2019-05-20T10:09:02.676Z,85.44
2019-05-20T10:10:02.580Z,85.49
2019-05-20T10:11:03.534Z,85.78
2019-05-20T10:12:02.436Z,85.36
2019-05-20T10:13:02.359Z,85.74
2019-05-20T10:14:02.286Z,86.61
2019-05-20T10:15:02.197Z,87.34
2019-05-20T10:16:02.101Z,87.82
2019-05-20T10:17:03.204Z,88.36
2019-05-20T10:18:01.936Z,89.03
2019-05-20T10:19:01.842Z,88.55
2019-05-20T10:20:01.767Z,88.69
2019-05-20T10:21:01.706Z,89.27
2019-05-20T10:22:01.607Z,88.02
2019-05-20T10:23:02.559Z,87.67
2019-05-20T10:24:01.511Z,87.34
2019-05-20T10:25:01.358Z,87.48
2019-05-20T10:26:01.276Z,86.80
2019-05-20T10:27:01.229Z,86.80
2019-05-20T10:28:01.117Z,86.17
2019-05-20T10:29:02.050Z,85.40
2019-05-20T10:30:00.966Z,86.21
2019-05-20T10:31:00.870Z,85.63
2019-05-20T10:32:00.776Z,85.44
2019-05-20T10:33:00.715Z,84.86
2019-05-20T10:34:01.532Z,83.61
2019-05-20T10:35:01.550Z,83.41
2019-05-20T10:36:00.449Z,83.51
2019-05-20T10:37:00.428Z,84.63
2019-05-20T10:38:00.400Z,85.88
2019-05-20T10:39:00.290Z,85.30
2019-05-20T10:40:00.160Z,85.30
2019-05-20T10:41:01.053Z,85.69
2019-05-20T10:41:59.961Z,85.59
2019-05-20T10:42:59.890Z,85.74
2019-05-20T10:43:59.805Z,86.71
2019-05-20T10:44:59.726Z,87.87
2019-05-20T10:45:59.731Z,87.48
2019-05-20T10:47:00.571Z,87.04
2019-05-20T10:47:59.493Z,87.13
2019-05-20T10:48:59.406Z,86.85
2019-05-20T10:49:59.339Z,86.56
2019-05-20T10:50:59.232Z,86.80
2019-05-20T10:51:59.144Z,87.29
2019-05-20T10:53:00.112Z,87.48
2019-05-20T10:53:58.989Z,88.06
2019-05-20T10:54:58.903Z,88.35
2019-05-20T10:55:59.182Z,87.48
2019-05-20T10:56:59.743Z,87.71
2019-05-20T10:57:58.657Z,87.38
2019-05-20T10:58:59.580Z,87.23
2019-05-20T10:59:58.505Z,87.91
2019-05-20T11:01:03.450Z,87.91
2019-05-20T11:01:58.334Z,87.04
2019-05-20T11:02:58.244Z,86.56
2019-05-20T11:03:58.160Z,86.07
2019-05-20T11:04:59.106Z,85.78
2019-05-20T11:05:58.017Z,85.30
2019-05-20T11:06:57.918Z,85.30
2019-05-20T11:07:57.959Z,87.29
2019-05-20T11:09:12.887Z,87.58
2019-05-20T11:09:57.789Z,88.02
2019-05-20T11:10:58.613Z,88.25
2019-05-20T11:11:57.526Z,88.73
2019-05-20T11:12:57.460Z,88.15
2019-05-20T11:13:57.361Z,87.04
2019-05-20T11:14:57.276Z,86.46
2019-05-20T11:15:57.187Z,86.69
2019-05-20T11:16:58.134Z,86.11
2019-05-20T11:17:57.034Z,85.97
2019-05-20T11:18:56.941Z,84.52
2019-05-20T11:19:56.866Z,83.80
2019-05-20T11:20:56.778Z,84.91
2019-05-20T11:21:56.721Z,85.21
2019-05-20T11:23:00.849Z,86.42
2019-05-20T11:23:56.534Z,87.09
2019-05-20T11:24:56.463Z,87.38
2019-05-20T11:25:56.367Z,87.48
2019-05-20T11:26:56.293Z,87.58
2019-05-20T11:27:56.214Z,87.34
2019-05-20T11:28:57.138Z,87.92
2019-05-20T11:29:56.048Z,88.40
2019-05-20T11:30:55.958Z,89.27
2019-05-20T11:31:55.898Z,88.69
2019-05-20T11:32:55.792Z,88.11
2019-05-20T11:33:57.646Z,88.69
2019-05-20T11:34:56.640Z,88.89
2019-05-20T11:35:55.550Z,89.07
2019-05-20T11:36:55.463Z,88.89
2019-05-20T11:37:55.382Z,88.89
2019-05-20T11:38:55.299Z,88.25
2019-05-20T11:39:55.223Z,87.77
2019-05-20T11:40:56.150Z,87.87
2019-05-20T11:41:55.063Z,87.44
2019-05-20T11:42:54.973Z,87.34
2019-05-20T11:43:54.907Z,87.34
2019-05-20T11:44:54.823Z,87.48
2019-05-20T11:45:54.745Z,87.48
2019-05-20T11:46:55.664Z,86.56
2019-05-20T11:47:54.569Z,87.47
2019-05-20T11:48:54.503Z,85.35
2019-05-20T11:49:54.423Z,84.47
2019-05-20T11:50:54.327Z,84.09
2019-05-20T11:51:54.238Z,84.82
2019-05-20T11:52:55.175Z,85.40
2019-05-20T11:53:54.088Z,85.49
2019-05-20T11:54:54.001Z,85.49
2019-05-20T11:55:53.916Z,85.05
2019-05-20T11:56:53.825Z,84.86
2019-05-20T11:57:53.756Z,84.91
2019-05-20T11:58:54.682Z,85.40
2019-05-20T11:59:53.590Z,85.25
2019-05-20T12:00:53.575Z,85.25
2019-05-20T12:01:53.424Z,85.44
2019-05-20T12:02:53.390Z,84.86
2019-05-20T12:03:53.254Z,84.38
2019-05-20T12:04:54.223Z,83.12
2019-05-20T12:05:53.111Z,82.97
2019-05-20T12:06:53.032Z,82.83
2019-05-20T12:07:52.943Z,83.27
2019-05-20T12:08:52.856Z,84.28
2019-05-20T12:09:52.778Z,83.27
2019-05-20T12:10:53.692Z,82.64
2019-05-20T12:11:52.615Z,81.87
2019-05-20T12:12:52.542Z,81.96
2019-05-20T12:13:52.461Z,83.03
2019-05-20T12:14:52.375Z,83.22
2019-05-20T12:15:52.285Z,84.28
2019-05-20T12:16:53.227Z,84.38
2019-05-20T12:17:52.119Z,83.51
2019-05-20T12:18:52.037Z,83.31
2019-05-20T12:19:51.967Z,83.12
2019-05-20T12:20:51.884Z,82.83
2019-05-20T12:21:51.790Z,82.73
2019-05-20T12:22:52.728Z,83.12
2019-05-20T12:23:51.664Z,82.25
2019-05-20T12:24:51.872Z,82.87
2019-05-20T12:25:51.471Z,83.06
2019-05-20T12:26:51.385Z,82.68
2019-05-20T12:27:51.311Z,82.87
2019-05-20T12:28:52.251Z,81.42
2019-05-20T12:29:51.131Z,81.81
2019-05-20T12:30:51.065Z,81.71
2019-05-20T12:31:50.973Z,81.65
2019-05-20T12:32:50.913Z,82.04
2019-05-20T12:33:50.839Z,81.21
2019-05-20T12:34:51.746Z,80.05
2019-05-20T12:35:50.678Z,79.52
2019-05-20T12:36:50.582Z,79.14
2019-05-20T12:37:50.508Z,80.11
2019-05-20T12:38:50.421Z,78.85
2019-05-20T12:40:05.881Z,79.27
2019-05-20T12:40:51.247Z,78.02
2019-05-20T12:41:50.157Z,78.41
2019-05-20T12:42:50.099Z,78.79
2019-05-20T12:44:09.696Z,78.66
2019-05-20T12:44:49.915Z,78.27
2019-05-20T12:45:49.855Z,79.62
2019-05-20T12:46:50.763Z,79.72
2019-05-20T12:47:49.701Z,79.27
2019-05-20T12:48:49.702Z,78.85
2019-05-20T12:49:49.547Z,79.43
2019-05-20T12:50:49.435Z,79.72
2019-05-20T12:51:49.371Z,79.14
2019-05-20T12:52:50.285Z,77.69